Time;durP1;ratioP1;P1;durP2;ratioP2;P2;SDS_P1;SDS_P2;PMS_P1;PMS_P2;Temp;Humidity;BMP_temperature;BMP_pressure;BME280_temperature;BME280_humidity;BME280_pressure;Samples;Min_cycle;Max_cycle;Signal;HPM_P1;HPM_P2
2022/09/03 00:01:39;;;;;;;4.80;1.00;;;;;;;;;;5038758;28;20084;-69
2022/09/03 00:04:11;;;;;;;4.03;0.82;;;;;;;;;;5039589;28;20079;-69
2022/09/03 00:06:41;;;;;;;5.72;1.10;;;;;;;;;;5036523;28;20064;-69
2022/09/03 00:09:14;;;;;;;2.05;0.90;;;;;;;;;;5032107;28;20531;-69
2022/09/03 00:11:40;;;;;;;5.88;1.05;;;;;;;;;;5035809;28;20052;-70
2022/09/03 00:14:09;;;;;;;6.63;1.02;;;;;;;;;;5038977;28;20037;-69
2022/09/03 00:16:43;;;;;;;3.83;1.00;;;;;;;;;;5037000;28;20118;-69
2022/09/03 00:19:11;;;;;;;3.63;1.00;;;;;;;;;;5022196;28;20049;-69
2022/09/03 00:21:40;;;;;;;1.52;0.80;;;;;;;;;;5036488;28;20064;-70
2022/09/03 00:24:09;;;;;;;5.63;1.02;;;;;;;;;;5032546;28;20102;-70
2022/09/03 00:26:36;;;;;;;8.38;0.98;;;;;;;;;;5036960;28;20045;-72
2022/09/03 00:29:07;;;;;;;4.05;0.90;;;;;;;;;;5036530;28;20090;-71
2022/09/03 00:31:41;;;;;;;3.30;1.00;;;;;;;;;;5040902;28;20084;-71
2022/09/03 00:34:17;;;;;;;4.70;1.25;;;;;;;;;;5039000;28;20052;-71
2022/09/03 00:36:45;;;;;;;3.63;0.80;;;;;;;;;;5038481;28;20044;-70
2022/09/03 00:39:13;;;;;;;6.20;1.23;;;;;;;;;;5032321;28;20040;-71
2022/09/03 00:41:48;;;;;;;3.72;1.13;;;;;;;;;;5022673;28;20044;-70
2022/09/03 00:44:14;;;;;;;4.68;0.70;;;;;;;;;;5038848;28;20053;-71
2022/09/03 00:46:40;;;;;;;3.30;0.90;;;;;;;;;;5044299;28;20049;-71
2022/09/03 00:49:11;;;;;;;6.45;1.17;;;;;;;;;;5041619;28;20095;-71
2022/09/03 00:51:47;;;;;;;3.85;0.80;;;;;;;;;;5036729;28;20165;-69
2022/09/03 00:54:20;;;;;;;2.78;0.90;;;;;;;;;;5039622;28;20506;-69
2022/09/03 00:57:15;;;;;;;3.22;0.90;;;;;;;;;;5042043;28;20903;-68
2022/09/03 00:59:48;;;;;;;3.75;0.85;;;;;;;;;;5037258;28;20891;-71
2022/09/03 01:02:15;;;;;;;5.90;1.15;;;;;;;;;;5040294;28;20060;-70
2022/09/03 01:04:47;;;;;;;6.78;1.10;;;;;;;;;;5040319;28;20136;-68
2022/09/03 01:07:30;;;;;;;4.20;1.20;;;;;;;;;;5039737;28;20049;-69
2022/09/03 01:10:04;;;;;;;3.10;0.90;;;;;;;;;;5044539;28;20068;-69
2022/09/03 01:12:31;;;;;;;2.33;0.80;;;;;;;;;;5041983;28;20044;-69
2022/09/03 01:15:01;;;;;;;2.13;0.80;;;;;;;;;;5040179;28;20152;-69
2022/09/03 01:17:34;;;;;;;3.65;0.82;;;;;;;;;;5041893;28;20048;-69
2022/09/03 01:20:00;;;;;;;;;;;;;;;;;;5037812;28;20060;-69
2022/09/03 01:22:49;;;;;;;5.68;0.98;;;;;;;;;;5076750;28;19924;-68
2022/09/03 01:25:20;;;;;;;3.72;1.23;;;;;;;;;;5045670;28;20048;-69
2022/09/03 01:28:01;;;;;;;3.28;0.95;;;;;;;;;;5039492;28;20455;-69
2022/09/03 01:30:29;;;;;;;2.35;0.70;;;;;;;;;;5040003;28;20140;-69
2022/09/03 01:33:01;;;;;;;10.70;1.08;;;;;;;;;;5039221;28;20061;-68
2022/09/03 01:35:27;;;;;;;2.40;0.95;;;;;;;;;;5041308;28;20044;-69
2022/09/03 01:38:01;;;;;;;6.32;1.35;;;;;;;;;;5043166;28;20111;-68
2022/09/03 01:40:35;;;;;;;3.60;0.70;;;;;;;;;;5035639;28;21628;-68
2022/09/03 01:43:12;;;;;;;4.18;0.80;;;;;;;;;;5040627;28;20049;-68
2022/09/03 01:45:47;;;;;;;6.25;0.80;;;;;;;;;;5036490;28;20139;-68
2022/09/03 01:48:15;;;;;;;4.03;0.93;;;;;;;;;;5037835;28;20125;-69
2022/09/03 01:50:42;;;;;;;2.72;0.95;;;;;;;;;;5039574;28;20048;-69
2022/09/03 01:53:09;;;;;;;8.32;1.13;;;;;;;;;;5034749;28;20053;-69
2022/09/03 01:55:55;;;;;;;4.25;1.00;;;;;;;;;;5043421;28;20044;-69
2022/09/03 01:58:21;;;;;;;2.88;1.10;;;;;;;;;;5040317;28;20064;-69
2022/09/03 02:00:51;;;;;;;10.98;1.10;;;;;;;;;;5035697;28;20084;-69
2022/09/03 02:03:17;;;;;;;4.90;0.90;;;;;;;;;;5036094;28;20107;-69
2022/09/03 02:05:45;;;;;;;7.53;1.20;;;;;;;;;;5033086;28;20588;-68
2022/09/03 02:08:12;;;;;;;4.30;0.85;;;;;;;;;;5036276;28;20052;-69
2022/09/03 02:10:40;;;;;;;7.45;1.55;;;;;;;;;;5038104;28;20137;-69
2022/09/03 02:13:08;;;;;;;5.72;1.38;;;;;;;;;;5041065;28;20075;-69
2022/09/03 02:15:36;;;;;;;3.97;0.77;;;;;;;;;;5045170;28;20160;-69
2022/09/03 02:18:03;;;;;;;4.03;0.95;;;;;;;;;;5045288;28;20159;-69
2022/09/03 02:20:30;;;;;;;4.00;0.90;;;;;;;;;;5039081;28;20040;-69
2022/09/03 02:22:57;;;;;;;2.63;0.93;;;;;;;;;;5039399;28;20040;-69
2022/09/03 02:25:26;;;;;;;3.47;0.90;;;;;;;;;;5071842;28;20061;-69
2022/09/03 02:27:52;;;;;;;3.78;0.98;;;;;;;;;;5044915;28;20045;-69
2022/09/03 02:30:18;;;;;;;3.38;0.93;;;;;;;;;;5042185;28;20049;-69
2022/09/03 02:32:44;;;;;;;5.43;0.90;;;;;;;;;;5037776;28;20502;-69
2022/09/03 02:35:11;;;;;;;5.75;0.57;;;;;;;;;;5040938;28;20049;-68
2022/09/03 02:37:38;;;;;;;3.22;0.95;;;;;;;;;;5039077;28;20484;-68
2022/09/03 02:40:07;;;;;;;3.85;1.00;;;;;;;;;;5036583;28;20094;-69
2022/09/03 02:42:34;;;;;;;5.93;1.15;;;;;;;;;;5042415;28;20145;-69
2022/09/03 02:45:03;;;;;;;3.10;1.02;;;;;;;;;;5036505;28;20074;-69
2022/09/03 02:47:31;;;;;;;9.30;1.10;;;;;;;;;;5037619;28;20489;-69
2022/09/03 02:49:57;;;;;;;2.25;0.80;;;;;;;;;;5038713;28;21650;-69
2022/09/03 02:52:23;;;;;;;5.50;1.33;;;;;;;;;;5032845;28;20396;-69
2022/09/03 02:54:50;;;;;;;4.80;1.10;;;;;;;;;;5034759;28;20083;-68
2022/09/03 02:57:16;;;;;;;4.03;0.88;;;;;;;;;;5038572;28;20057;-68
2022/09/03 02:59:44;;;;;;;6.25;1.15;;;;;;;;;;5043452;28;20168;-68
2022/09/03 03:02:11;;;;;;;3.33;1.08;;;;;;;;;;5046538;28;20117;-69
2022/09/03 03:04:37;;;;;;;3.55;1.00;;;;;;;;;;5040999;28;20063;-69
2022/09/03 03:07:04;;;;;;;1.80;0.90;;;;;;;;;;5037059;28;20040;-69
2022/09/03 03:09:30;;;;;;;3.17;0.85;;;;;;;;;;5038501;28;20077;-68
2022/09/03 03:11:56;;;;;;;4.18;0.90;;;;;;;;;;5037564;28;20074;-68
2022/09/03 03:14:22;;;;;;;4.30;0.70;;;;;;;;;;5039830;28;20061;-68
2022/09/03 03:16:49;;;;;;;6.75;1.10;;;;;;;;;;5038271;28;20045;-69
2022/09/03 03:19:15;;;;;;;4.20;1.30;;;;;;;;;;5036877;28;20085;-69
2022/09/03 03:21:41;;;;;;;4.03;1.20;;;;;;;;;;5043043;28;20036;-68
2022/09/03 03:24:07;;;;;;;4.28;0.90;;;;;;;;;;5039523;28;20051;-69
2022/09/03 03:26:34;;;;;;;3.63;0.85;;;;;;;;;;5040048;28;20040;-68
2022/09/03 03:29:03;;;;;;;4.50;1.42;;;;;;;;;;5023649;28;20053;-69
2022/09/03 03:31:29;;;;;;;5.32;1.17;;;;;;;;;;5030225;28;20049;-68
2022/09/03 03:33:57;;;;;;;2.42;0.70;;;;;;;;;;5039908;28;20120;-68
2022/09/03 03:36:24;;;;;;;3.53;1.00;;;;;;;;;;5037531;28;20041;-68
2022/09/03 03:38:53;;;;;;;3.28;0.90;;;;;;;;;;5034416;28;21444;-69
2022/09/03 03:41:21;;;;;;;4.03;1.02;;;;;;;;;;5034140;28;20091;-69
2022/09/03 03:43:47;;;;;;;6.45;1.20;;;;;;;;;;5038135;28;20048;-69
2022/09/03 03:46:14;;;;;;;4.32;1.15;;;;;;;;;;5039110;28;20123;-69
2022/09/03 03:48:40;;;;;;;3.05;1.08;;;;;;;;;;5042586;28;20111;-68
2022/09/03 03:51:08;;;;;;;2.20;1.10;;;;;;;;;;5042121;28;20148;-68
2022/09/03 03:53:35;;;;;;;3.15;0.80;;;;;;;;;;5037948;28;20111;-69
2022/09/03 03:56:02;;;;;;;7.47;0.85;;;;;;;;;;5036429;28;20069;-69
2022/09/03 03:58:30;;;;;;;2.35;0.85;;;;;;;;;;5039098;28;20395;-69
2022/09/03 04:01:03;;;;;;;4.35;1.10;;;;;;;;;;5039079;28;20485;-69
2022/09/03 04:03:29;;;;;;;3.60;1.08;;;;;;;;;;5037572;28;20045;-68
2022/09/03 04:05:56;;;;;;;3.55;0.82;;;;;;;;;;5040418;28;20115;-68
2022/09/03 04:08:22;;;;;;;3.45;1.23;;;;;;;;;;5037586;28;20051;-69
2022/09/03 04:10:49;;;;;;;6.93;1.33;;;;;;;;;;5040399;28;20380;-68
2022/09/03 04:13:15;;;;;;;8.32;1.40;;;;;;;;;;5040319;28;20119;-68
2022/09/03 04:15:41;;;;;;;5.95;1.25;;;;;;;;;;5029960;28;20044;-68
2022/09/03 04:18:07;;;;;;;3.53;1.48;;;;;;;;;;5040565;28;20587;-67
2022/09/03 04:20:39;;;;;;;5.35;1.20;;;;;;;;;;5039329;28;20087;-69
2022/09/03 04:23:06;;;;;;;5.65;1.08;;;;;;;;;;5044827;28;22193;-69
2022/09/03 04:25:32;;;;;;;4.78;1.58;;;;;;;;;;5045893;28;20117;-68
2022/09/03 04:27:59;;;;;;;3.90;1.10;;;;;;;;;;5039056;28;20131;-68
2022/09/03 04:30:26;;;;;;;2.65;0.90;;;;;;;;;;5039587;28;20095;-69
2022/09/03 04:32:52;;;;;;;2.42;0.80;;;;;;;;;;5042516;28;20061;-69
2022/09/03 04:35:20;;;;;;;3.88;1.02;;;;;;;;;;5048548;28;20128;-69
2022/09/03 04:37:47;;;;;;;4.70;1.10;;;;;;;;;;5044270;28;20049;-68
2022/09/03 04:40:13;;;;;;;7.30;1.20;;;;;;;;;;5046164;28;20155;-68
2022/09/03 04:42:39;;;;;;;5.22;1.15;;;;;;;;;;5043828;28;20057;-68
2022/09/03 04:45:06;;;;;;;8.38;1.05;;;;;;;;;;5040010;28;20033;-69
2022/09/03 04:47:32;;;;;;;8.68;1.02;;;;;;;;;;5038727;28;20106;-69
2022/09/03 04:50:00;;;;;;;4.03;1.02;;;;;;;;;;5042218;28;20045;-68
2022/09/03 04:52:30;;;;;;;4.03;1.00;;;;;;;;;;5031174;28;20093;-69
2022/09/03 04:54:56;;;;;;;4.28;1.35;;;;;;;;;;5031467;28;20136;-69
2022/09/03 04:57:23;;;;;;;3.22;1.13;;;;;;;;;;5039712;28;20049;-69
2022/09/03 04:59:49;;;;;;;4.15;1.10;;;;;;;;;;5036334;28;20751;-69
2022/09/03 05:02:15;;;;;;;3.22;1.00;;;;;;;;;;5040620;28;20048;-69
2022/09/03 05:04:41;;;;;;;2.83;1.02;;;;;;;;;;5041062;28;20473;-69
2022/09/03 05:07:08;;;;;;;5.45;1.55;;;;;;;;;;5037159;28;20060;-69
2022/09/03 05:09:34;;;;;;;10.68;1.52;;;;;;;;;;5036763;28;20059;-69
2022/09/03 05:12:00;;;;;;;7.38;1.10;;;;;;;;;;5038323;28;20151;-68
2022/09/03 05:14:26;;;;;;;4.05;1.65;;;;;;;;;;5041713;28;20049;-69
2022/09/03 05:16:52;;;;;;;4.40;1.02;;;;;;;;;;5044459;28;20342;-68
2022/09/03 05:19:18;;;;;;;4.38;1.20;;;;;;;;;;5039275;28;20065;-69
2022/09/03 05:21:44;;;;;;;4.43;1.75;;;;;;;;;;5037193;28;20135;-68
2022/09/03 05:24:11;;;;;;;3.05;1.23;;;;;;;;;;5053623;28;20049;-68
2022/09/03 05:26:38;;;;;;;5.25;1.08;;;;;;;;;;5037411;28;20040;-69
2022/09/03 05:29:07;;;;;;;4.20;1.20;;;;;;;;;;5036258;28;20052;-69
2022/09/03 05:31:34;;;;;;;4.55;0.98;;;;;;;;;;5039058;28;20040;-69
2022/09/03 05:34:02;;;;;;;2.60;1.25;;;;;;;;;;5039416;28;20049;-69
2022/09/03 05:36:30;;;;;;;5.28;1.40;;;;;;;;;;5038714;28;20055;-69
2022/09/03 05:38:57;;;;;;;3.28;0.95;;;;;;;;;;5073733;28;20493;-69
2022/09/03 05:41:23;;;;;;;7.75;1.45;;;;;;;;;;5042529;28;20037;-69
2022/09/03 05:43:52;;;;;;;4.30;1.20;;;;;;;;;;5044095;28;20053;-69
2022/09/03 05:46:18;;;;;;;5.53;1.60;;;;;;;;;;5036761;28;20975;-69
2022/09/03 05:48:45;;;;;;;3.05;1.40;;;;;;;;;;5042880;28;20085;-69
2022/09/03 05:51:15;;;;;;;10.18;1.73;;;;;;;;;;5043627;28;20041;-69
2022/09/03 05:53:41;;;;;;;6.47;1.20;;;;;;;;;;5036719;28;20063;-69
2022/09/03 05:56:11;;;;;;;6.07;1.52;;;;;;;;;;5040026;28;20052;-66
2022/09/03 05:58:38;;;;;;;3.92;1.23;;;;;;;;;;5039992;28;20074;-68
2022/09/03 06:01:11;;;;;;;6.22;1.40;;;;;;;;;;5035182;28;20075;-69
2022/09/03 06:03:38;;;;;;;;;;;;;;;;;;5039074;28;20879;-68
2022/09/03 06:06:04;;;;;;;5.20;1.13;;;;;;;;;;5040419;28;19928;-69
2022/09/03 06:08:30;;;;;;;10.82;1.50;;;;;;;;;;5042711;28;20160;-70
2022/09/03 06:10:58;;;;;;;6.43;1.38;;;;;;;;;;5045751;28;20069;-69
2022/09/03 06:13:24;;;;;;;3.17;1.30;;;;;;;;;;5039912;28;20381;-68
2022/09/03 06:15:55;;;;;;;5.85;1.40;;;;;;;;;;5038661;28;20147;-68
2022/09/03 06:18:21;;;;;;;8.98;1.95;;;;;;;;;;5037739;28;20500;-68
2022/09/03 06:21:04;;;;;;;3.67;1.23;;;;;;;;;;5038067;28;20368;-68
2022/09/03 06:23:31;;;;;;;8.80;1.90;;;;;;;;;;5046044;28;20045;-69
2022/09/03 06:26:03;;;;;;;4.85;1.20;;;;;;;;;;5045410;28;20051;-69
2022/09/03 06:28:30;;;;;;;5.72;1.35;;;;;;;;;;5046949;28;20480;-70
2022/09/03 06:30:58;;;;;;;6.57;1.40;;;;;;;;;;5041270;28;20053;-69
2022/09/03 06:33:24;;;;;;;3.38;1.30;;;;;;;;;;5043549;28;20080;-69
2022/09/03 06:35:56;;;;;;;3.58;1.23;;;;;;;;;;5051269;28;20055;-69
2022/09/03 06:38:24;;;;;;;5.20;1.48;;;;;;;;;;5057153;28;20083;-69
2022/09/03 06:40:52;;;;;;;4.60;1.30;;;;;;;;;;5050271;28;20246;-69
2022/09/03 06:43:18;;;;;;;6.75;1.33;;;;;;;;;;5044473;28;20052;-69
2022/09/03 06:45:52;;;;;;;10.10;1.65;;;;;;;;;;5044315;28;20149;-70
2022/09/03 06:48:18;;;;;;;4.60;1.42;;;;;;;;;;5057167;28;20107;-69
2022/09/03 06:50:44;;;;;;;4.72;1.60;;;;;;;;;;5040064;28;20053;-69
2022/09/03 06:53:11;;;;;;;5.60;1.70;;;;;;;;;;5040044;28;20095;-69
2022/09/03 06:55:38;;;;;;;3.15;1.67;;;;;;;;;;5040560;28;20403;-69
2022/09/03 06:58:05;;;;;;;5.57;1.50;;;;;;;;;;5038694;28;21828;-69
2022/09/03 07:00:32;;;;;;;5.05;1.20;;;;;;;;;;5034452;28;20056;-69
2022/09/03 07:02:58;;;;;;;2.78;1.27;;;;;;;;;;5042913;28;20052;-68
2022/09/03 07:05:27;;;;;;;5.60;1.55;;;;;;;;;;5047167;28;20052;-69
2022/09/03 07:07:53;;;;;;;3.92;1.20;;;;;;;;;;5044954;28;20068;-68
2022/09/03 07:10:20;;;;;;;5.00;1.35;;;;;;;;;;5048465;28;20067;-68
2022/09/03 07:12:46;;;;;;;4.20;1.50;;;;;;;;;;5047236;28;20030;-68
2022/09/03 07:15:12;;;;;;;3.63;1.35;;;;;;;;;;5034080;28;20179;-68
2022/09/03 07:17:39;;;;;;;3.88;1.23;;;;;;;;;;5037287;28;20045;-68
2022/09/03 07:20:05;;;;;;;4.72;1.75;;;;;;;;;;5036480;28;20048;-68
2022/09/03 07:22:31;;;;;;;3.53;1.50;;;;;;;;;;5048330;28;20488;-68
2022/09/03 07:24:58;;;;;;;4.25;1.45;;;;;;;;;;5045456;28;20499;-68
2022/09/03 07:27:25;;;;;;;3.80;1.23;;;;;;;;;;5058579;28;20048;-68
2022/09/03 07:29:51;;;;;;;5.93;2.25;;;;;;;;;;5041592;28;20068;-67
2022/09/03 07:32:17;;;;;;;6.68;2.00;;;;;;;;;;5039617;28;20036;-67
2022/09/03 07:34:43;;;;;;;6.55;1.50;;;;;;;;;;5040556;28;20045;-68
2022/09/03 07:37:09;;;;;;;3.78;1.55;;;;;;;;;;5046255;28;20080;-67
2022/09/03 07:39:36;;;;;;;5.20;1.15;;;;;;;;;;5051077;28;20059;-68
2022/09/03 07:42:02;;;;;;;7.88;1.27;;;;;;;;;;5049930;28;20044;-68
2022/09/03 07:44:29;;;;;;;3.88;1.23;;;;;;;;;;5051584;28;20397;-67
2022/09/03 07:46:55;;;;;;;10.80;1.60;;;;;;;;;;5045465;28;20091;-69
2022/09/03 07:49:22;;;;;;;8.45;1.50;;;;;;;;;;5044381;28;20405;-68
2022/09/03 07:51:51;;;;;;;8.05;1.40;;;;;;;;;;5050489;28;20045;-68
2022/09/03 07:54:17;;;;;;;6.43;1.27;;;;;;;;;;5040629;28;20064;-68
2022/09/03 07:56:43;;;;;;;3.95;1.20;;;;;;;;;;5043087;28;20032;-67
2022/09/03 07:59:10;;;;;;;5.30;1.10;;;;;;;;;;5046040;28;20079;-68
2022/09/03 08:01:37;;;;;;;3.78;1.33;;;;;;;;;;5033964;28;20044;-69
2022/09/03 08:04:05;;;;;;;17.08;2.10;;;;;;;;;;5028974;28;20114;-65
2022/09/03 08:06:33;;;;;;;5.20;1.10;;;;;;;;;;5039203;28;20201;-66
2022/09/03 08:09:00;;;;;;;7.35;1.50;;;;;;;;;;5040311;28;20041;-65
2022/09/03 08:11:27;;;;;;;3.67;1.23;;;;;;;;;;5043788;28;20124;-65
2022/09/03 08:13:56;;;;;;;7.05;1.80;;;;;;;;;;5049819;28;20119;-65
2022/09/03 08:16:23;;;;;;;23.65;2.67;;;;;;;;;;5047559;28;20053;-65
2022/09/03 08:18:50;;;;;;;9.55;1.67;;;;;;;;;;5047578;28;21748;-65
2022/09/03 08:21:17;;;;;;;4.20;1.13;;;;;;;;;;5042304;28;20052;-66
2022/09/03 08:23:45;;;;;;;4.95;1.55;;;;;;;;;;5039666;28;20125;-65
2022/09/03 08:26:11;;;;;;;4.00;1.50;;;;;;;;;;5038231;28;20037;-66
2022/09/03 08:28:37;;;;;;;6.68;1.30;;;;;;;;;;5041622;28;20055;-65
2022/09/03 08:31:06;;;;;;;3.50;1.00;;;;;;;;;;5033305;28;20493;-66
2022/09/03 08:33:39;;;;;;;4.63;1.42;;;;;;;;;;5040922;28;20108;-66
2022/09/03 08:36:07;;;;;;;3.40;1.40;;;;;;;;;;5021910;28;20517;-65
2022/09/03 08:38:34;;;;;;;7.82;1.42;;;;;;;;;;5033737;28;20135;-66
2022/09/03 08:41:07;;;;;;;4.05;1.20;;;;;;;;;;5039732;28;20175;-66
2022/09/03 08:43:37;;;;;;;6.95;1.80;;;;;;;;;;5041294;28;20106;-66
2022/09/03 08:46:03;;;;;;;2.67;1.52;;;;;;;;;;5040823;28;20033;-66
2022/09/03 08:48:29;;;;;;;8.55;1.20;;;;;;;;;;5051311;28;20109;-65
2022/09/03 08:50:59;;;;;;;6.55;1.30;;;;;;;;;;5051569;28;20041;-66
2022/09/03 08:53:35;;;;;;;7.07;1.30;;;;;;;;;;5046267;28;20045;-66
2022/09/03 08:56:06;;;;;;;39.70;6.10;;;;;;;;;;5042647;28;20506;-65
2022/09/03 08:58:33;;;;;;;9.23;1.40;;;;;;;;;;5043048;28;20053;-65
2022/09/03 09:01:00;;;;;;;9.75;2.17;;;;;;;;;;5039797;28;20045;-67
2022/09/03 09:03:27;;;;;;;3.80;1.20;;;;;;;;;;5052442;28;20033;-67
2022/09/03 09:05:57;;;;;;;2.63;1.08;;;;;;;;;;5040846;28;20060;-67
2022/09/03 09:08:32;;;;;;;8.77;1.20;;;;;;;;;;5075010;28;20196;-66
2022/09/03 09:11:05;;;;;;;6.68;1.70;;;;;;;;;;5039667;28;20041;-66
2022/09/03 09:13:37;;;;;;;4.55;1.15;;;;;;;;;;5043427;28;20552;-67
2022/09/03 09:16:03;;;;;;;5.38;1.15;;;;;;;;;;5036195;28;20041;-67
2022/09/03 09:18:29;;;;;;;4.22;1.33;;;;;;;;;;5042665;28;20427;-67
2022/09/03 09:20:57;;;;;;;5.63;1.60;;;;;;;;;;5043742;28;20166;-66
2022/09/03 09:23:24;;;;;;;3.58;1.50;;;;;;;;;;5043009;28;20481;-67
2022/09/03 09:25:51;;;;;;;5.40;1.67;;;;;;;;;;5045490;28;20046;-66
2022/09/03 09:28:18;;;;;;;5.68;1.23;;;;;;;;;;5046765;28;20497;-67
2022/09/03 09:30:46;;;;;;;4.50;1.35;;;;;;;;;;5052629;28;20048;-67
2022/09/03 09:33:14;;;;;;;3.17;1.35;;;;;;;;;;5047443;28;20044;-67
2022/09/03 09:35:41;;;;;;;3.25;1.17;;;;;;;;;;5049380;28;20073;-67
2022/09/03 09:38:08;;;;;;;2.72;1.20;;;;;;;;;;5048617;28;20060;-67
2022/09/03 09:40:37;;;;;;;3.97;1.08;;;;;;;;;;5047415;28;20126;-67
2022/09/03 09:43:05;;;;;;;5.80;1.13;;;;;;;;;;5045225;28;20071;-67
2022/09/03 09:45:33;;;;;;;3.33;1.30;;;;;;;;;;5029356;28;20048;-67
2022/09/03 09:47:59;;;;;;;4.68;1.15;;;;;;;;;;5048137;28;22047;-67
2022/09/03 09:50:25;;;;;;;7.00;1.38;;;;;;;;;;5050265;28;20082;-67
2022/09/03 09:53:03;;;;;;;8.13;1.30;;;;;;;;;;5035465;28;20095;-67
2022/09/03 09:55:29;;;;;;;4.03;1.23;;;;;;;;;;5044569;28;20053;-67
2022/09/03 09:58:05;;;;;;;7.00;1.30;;;;;;;;;;5041848;28;20088;-67
2022/09/03 10:00:33;;;;;;;1.95;0.90;;;;;;;;;;5044775;28;20552;-68
2022/09/03 10:03:00;;;;;;;4.03;1.35;;;;;;;;;;5045600;28;20052;-67
2022/09/03 10:05:29;;;;;;;4.55;1.00;;;;;;;;;;5049514;28;20040;-67
2022/09/03 10:07:58;;;;;;;4.82;1.30;;;;;;;;;;5053864;28;20053;-68
2022/09/03 10:10:25;;;;;;;4.97;1.42;;;;;;;;;;5047023;28;20492;-67
2022/09/03 10:13:00;;;;;;;6.85;1.30;;;;;;;;;;5046718;28;20045;-68
2022/09/03 10:15:32;;;;;;;4.93;1.50;;;;;;;;;;5039753;28;20045;-67
2022/09/03 10:17:59;;;;;;;3.70;1.43;;;;;;;;;;5041107;28;20041;-67
2022/09/03 10:20:36;;;;;;;7.70;1.20;;;;;;;;;;5038666;28;20382;-70
2022/09/03 10:23:15;;;;;;;4.35;1.20;;;;;;;;;;5045843;28;20379;-67
2022/09/03 10:25:49;;;;;;;3.70;1.23;;;;;;;;;;5040561;28;20541;-67
2022/09/03 10:28:16;;;;;;;6.78;1.20;;;;;;;;;;5050549;28;20044;-69
2022/09/03 10:30:49;;;;;;;3.35;1.30;;;;;;;;;;5043842;28;20045;-69
2022/09/03 10:33:22;;;;;;;4.75;1.08;;;;;;;;;;5040773;28;20040;-68
2022/09/03 10:35:52;;;;;;;3.20;1.88;;;;;;;;;;5044152;28;20128;-68
2022/09/03 10:38:24;;;;;;;7.85;1.55;;;;;;;;;;5045104;28;20045;-68
2022/09/03 10:40:50;;;;;;;7.53;1.30;;;;;;;;;;5045782;28;20053;-68
2022/09/03 10:43:40;;;;;;;4.88;1.23;;;;;;;;;;5040073;28;20037;-68
2022/09/03 10:46:10;;;;;;;4.80;1.48;;;;;;;;;;5045396;28;20059;-68
2022/09/03 10:48:41;;;;;;;4.93;1.20;;;;;;;;;;5043504;28;20580;-68
2022/09/03 10:51:19;;;;;;;3.63;0.82;;;;;;;;;;5043555;28;20052;-68
2022/09/03 10:53:46;;;;;;;6.00;1.42;;;;;;;;;;5044392;28;20056;-68
2022/09/03 10:56:16;;;;;;;3.67;1.30;;;;;;;;;;5035037;28;20094;-68
2022/09/03 10:59:00;;;;;;;3.83;0.98;;;;;;;;;;5045635;28;20111;-69
2022/09/03 11:01:35;;;;;;;3.55;0.98;;;;;;;;;;5043832;28;20041;-69
2022/09/03 11:04:02;;;;;;;4.65;1.13;;;;;;;;;;5040146;28;20049;-68
2022/09/03 11:06:29;;;;;;;6.53;0.90;;;;;;;;;;5044117;28;20060;-69
2022/09/03 11:08:59;;;;;;;4.10;0.90;;;;;;;;;;5044033;28;20045;-69
2022/09/03 11:11:31;;;;;;;9.00;1.13;;;;;;;;;;5043581;28;20399;-69
2022/09/03 11:14:07;;;;;;;4.33;1.03;;;;;;;;;;5042556;28;20250;-69
2022/09/03 11:16:37;;;;;;;7.57;0.80;;;;;;;;;;5048496;28;20036;-66
2022/09/03 11:19:05;;;;;;;4.00;0.93;;;;;;;;;;5046256;28;20041;-66
2022/09/03 11:21:32;;;;;;;4.22;1.23;;;;;;;;;;5047530;28;20041;-66
2022/09/03 11:24:07;;;;;;;5.95;0.80;;;;;;;;;;5046223;28;20079;-66
2022/09/03 11:26:34;;;;;;;5.93;0.98;;;;;;;;;;5040815;28;20055;-66
2022/09/03 11:29:07;;;;;;;4.68;1.02;;;;;;;;;;5044319;28;20044;-66
2022/09/03 11:31:39;;;;;;;4.28;0.93;;;;;;;;;;5042297;28;20102;-66
2022/09/03 11:34:08;;;;;;;4.68;1.08;;;;;;;;;;5046743;28;20063;-67
2022/09/03 11:36:36;;;;;;;4.63;0.85;;;;;;;;;;5050951;28;20045;-66
2022/09/03 11:39:17;;;;;;;2.83;1.10;;;;;;;;;;5041038;28;20045;-77
2022/09/03 11:41:56;;;;;;;6.13;0.90;;;;;;;;;;5038701;28;20048;-66
2022/09/03 11:44:22;;;;;;;5.43;0.70;;;;;;;;;;5036326;28;20076;-66
2022/09/03 11:46:55;;;;;;;5.22;1.23;;;;;;;;;;5043547;28;20129;-66
2022/09/03 11:49:30;;;;;;;4.95;1.00;;;;;;;;;;5046501;28;20478;-66
2022/09/03 11:52:00;;;;;;;4.97;1.13;;;;;;;;;;5042469;28;20049;-68
2022/09/03 11:54:26;;;;;;;2.58;0.88;;;;;;;;;;5060431;28;20045;-66
2022/09/03 11:57:12;;;;;;;5.38;1.17;;;;;;;;;;5066239;28;20052;-65
2022/09/03 11:59:39;;;;;;;5.25;0.93;;;;;;;;;;5050652;28;20036;-66
2022/09/03 12:02:16;;;;;;;3.70;0.80;;;;;;;;;;5041145;28;20063;-65
2022/09/03 12:04:47;;;;;;;5.93;1.45;;;;;;;;;;5041312;28;20045;-65
2022/09/03 12:07:14;;;;;;;6.13;1.23;;;;;;;;;;5045688;28;20033;-65
2022/09/03 12:10:02;;;;;;;6.93;1.08;;;;;;;;;;5046698;28;20090;-66
2022/09/03 12:12:38;;;;;;;4.38;0.77;;;;;;;;;;5043405;28;20098;-66
2022/09/03 12:15:07;;;;;;;5.35;1.05;;;;;;;;;;5047068;28;20041;-66
2022/09/03 12:18:17;;;;;;;8.18;1.10;;;;;;;;;;5047065;28;20076;-67
2022/09/03 12:20:36;;;;;;;5.28;1.10;;;;;;;;;;5046521;28;20044;-67
2022/09/03 12:23:02;;;;;;;4.63;0.90;;;;;;;;;;5049378;28;20412;-68
2022/09/03 12:25:28;;;;;;;5.90;0.90;;;;;;;;;;5044047;28;20057;-68
2022/09/03 12:27:54;;;;;;;4.60;0.90;;;;;;;;;;5043896;28;20076;-68
2022/09/03 12:30:23;;;;;;;5.75;0.93;;;;;;;;;;5044242;28;20040;-68
2022/09/03 12:32:50;;;;;;;5.22;0.93;;;;;;;;;;5047287;28;20056;-68
2022/09/03 12:35:18;;;;;;;4.30;0.95;;;;;;;;;;5050579;28;20037;-68
2022/09/03 12:37:45;;;;;;;3.13;0.82;;;;;;;;;;5050289;28;20044;-68
2022/09/03 12:40:17;;;;;;;6.75;0.80;;;;;;;;;;5042958;28;20044;-67
2022/09/03 12:42:44;;;;;;;3.60;0.80;;;;;;;;;;5077518;28;20052;-68
2022/09/03 12:45:14;;;;;;;4.03;0.85;;;;;;;;;;5045828;28;20076;-68
2022/09/03 12:47:41;;;;;;;2.28;0.80;;;;;;;;;;5049040;28;20470;-68
2022/09/03 12:50:09;;;;;;;3.17;0.70;;;;;;;;;;5052398;28;20060;-68
2022/09/03 12:52:37;;;;;;;3.17;0.90;;;;;;;;;;5051964;28;20445;-68
2022/09/03 12:55:08;;;;;;;3.67;0.80;;;;;;;;;;5052072;28;21504;-68
2022/09/03 12:57:37;;;;;;;4.43;0.93;;;;;;;;;;5049830;28;20045;-68
2022/09/03 13:00:06;;;;;;;2.67;0.90;;;;;;;;;;5045750;28;20096;-67
2022/09/03 13:02:39;;;;;;;3.75;0.60;;;;;;;;;;5042297;28;20548;-69
2022/09/03 13:05:08;;;;;;;6.47;0.98;;;;;;;;;;5050665;28;20127;-66
2022/09/03 13:07:37;;;;;;;3.28;0.70;;;;;;;;;;5050876;28;20036;-66
2022/09/03 13:10:07;;;;;;;4.60;1.08;;;;;;;;;;5056913;28;20110;-66
2022/09/03 13:12:35;;;;;;;4.50;0.80;;;;;;;;;;5053599;28;20053;-66
2022/09/03 13:15:06;;;;;;;4.50;1.08;;;;;;;;;;5050883;28;20148;-67
2022/09/03 13:17:46;;;;;;;6.32;0.93;;;;;;;;;;5050548;28;20044;-66
2022/09/03 13:20:14;;;;;;;1.85;0.73;;;;;;;;;;5054977;28;20053;-66
2022/09/03 13:22:42;;;;;;;5.28;0.82;;;;;;;;;;5061322;28;20032;-67
2022/09/03 13:25:11;;;;;;;4.05;0.85;;;;;;;;;;5057004;28;20044;-67
2022/09/03 13:27:41;;;;;;;5.82;0.80;;;;;;;;;;5059124;28;20055;-67
2022/09/03 13:30:10;;;;;;;3.38;0.80;;;;;;;;;;5053436;28;20053;-67
2022/09/03 13:32:49;;;;;;;3.13;0.70;;;;;;;;;;5050978;28;20099;-67
2022/09/03 13:35:24;;;;;;;3.25;0.90;;;;;;;;;;5048159;28;20056;-67
2022/09/03 13:37:57;;;;;;;6.82;1.15;;;;;;;;;;5058888;28;20762;-67
2022/09/03 13:40:24;;;;;;;4.32;0.70;;;;;;;;;;5063344;28;20380;-67
2022/09/03 13:42:53;;;;;;;5.85;1.05;;;;;;;;;;5056235;28;20145;-66
2022/09/03 13:45:29;;;;;;;10.82;1.27;;;;;;;;;;5056253;28;20076;-66
2022/09/03 13:50:48;;;;;;;2.88;1.10;;;;;;;;;;5051969;28;20492;-66
2022/09/03 13:53:31;;;;;;;3.90;0.82;;;;;;;;;;5057237;28;20404;-66
2022/09/03 13:56:04;;;;;;;5.68;0.82;;;;;;;;;;5057818;28;20322;-67
2022/09/03 13:58:38;;;;;;;3.30;0.77;;;;;;;;;;5052643;28;20037;-67
2022/09/03 14:01:10;;;;;;;2.65;0.75;;;;;;;;;;5050250;28;20118;-66
2022/09/03 14:03:45;;;;;;;4.35;1.17;;;;;;;;;;5048668;28;20088;-66
2022/09/03 14:06:31;;;;;;;2.95;0.73;;;;;;;;;;5050693;28;20052;-66
2022/09/03 14:09:16;;;;;;;9.00;0.88;;;;;;;;;;5053556;28;20045;-66
2022/09/03 14:11:54;;;;;;;5.82;1.20;;;;;;;;;;5051425;28;20052;-66
2022/09/03 14:14:31;;;;;;;4.28;1.25;;;;;;;;;;5041036;28;20075;-67
2022/09/03 14:17:05;;;;;;;8.23;1.00;;;;;;;;;;5058489;28;20144;-66
2022/09/03 14:19:37;;;;;;;6.15;0.90;;;;;;;;;;5052823;28;20095;-66
2022/09/03 14:22:08;;;;;;;3.42;0.90;;;;;;;;;;5051293;28;20496;-66
2022/09/03 14:24:44;;;;;;;5.00;0.98;;;;;;;;;;5052091;28;20045;-66
2022/09/03 14:27:10;;;;;;;4.88;0.70;;;;;;;;;;5050568;28;20040;-66
2022/09/03 14:29:36;;;;;;;7.25;0.95;;;;;;;;;;5049074;28;20044;-66
2022/09/03 14:32:07;;;;;;;3.55;0.60;;;;;;;;;;5051550;28;20563;-67
2022/09/03 14:34:34;;;;;;;5.53;1.17;;;;;;;;;;5049948;28;20043;-66
2022/09/03 14:37:09;;;;;;;6.50;0.95;;;;;;;;;;5049162;28;21774;-66
2022/09/03 14:39:54;;;;;;;2.85;1.13;;;;;;;;;;5048476;28;20049;-66
2022/09/03 14:42:26;;;;;;;4.20;1.05;;;;;;;;;;5051329;28;20068;-66
2022/09/03 14:44:53;;;;;;;;;;;;;;;;;;5050611;28;20041;-66
2022/09/03 14:47:26;;;;;;;9.07;1.08;;;;;;;;;;5052506;28;20260;-66
2022/09/03 14:49:53;;;;;;;6.47;0.90;;;;;;;;;;5053331;28;20063;-66
2022/09/03 14:52:25;;;;;;;4.45;0.85;;;;;;;;;;5054017;28;20132;-66
2022/09/03 14:55:00;;;;;;;4.15;1.08;;;;;;;;;;5052436;28;20957;-66
2022/09/03 14:57:26;;;;;;;3.22;0.80;;;;;;;;;;5049851;28;20036;-66
2022/09/03 15:00:08;;;;;;;3.80;1.05;;;;;;;;;;5048440;28;20720;-66